Aviation Digital Data Service (ADDS)

Output produced by METARs form (1735 UTC 27 May 2017)
found at http://www.aviationweather.gov/adds/metars/
 
WSAP 271500Z 05003KT 9999 FEW018 BKN150 28/26 Q1009
TAF WSAP 271700Z 2718/2900 16008KT 9999 FEW018CB SCT020 
     TEMPO 2802/2806 3000 TSRA FEW012CB BKN015
       
WSSL 271500Z 02004KT 9999 FEW020 BKN140 27/26 Q1009 RMK 1430Z Q1009
TAF WSSL 271700Z 2718/2900 16008KT 9999 FEW018CB SCT020 
     TEMPO 2802/2806 3000 TSRA FEW012CB BKN015
       
WSSS 271730Z 09005KT 060V130 9999 FEW018 BKN160 28/26 Q1009 NOSIG
TAF WSSS 271700Z 2718/2900 16008KT 9999 FEW018CB SCT020 
     TEMPO 2802/2806 3000 TSRA FEW012CB BKN015